Laval-Des-Rapides, Canada
Current Conditions -  °F | °C
As of 8:00 PM on Monday 22 Dec 2014 (Local Time) from CYUL Reporting Station
Overcast Overcast  
Wind Chill:   Ceiling: 4000
Heat Index: 19°   Visibility: 10mi
Dew Point: 16°   Wind: 13mph
Humidity: 86%   Direction: 30°NNE
Pressure: 30.32"   Gusts: NA
Location:  45.55°N, 73.7°W
Report Text: CYUL 230100Z 03011KT 10SM OVC040 M07/M09 A3032 RMK SC8 SLP270
Loading
Personal Weather Stations






























Interactive Weather Map New forecast layout! Learn more

10-Day Weather Forecast

Advertisements
Track Severe Weather on mobile